Monkey Run, Arkansas
Current Conditions -  °F | °C
As of 2:53 AM on Wednesday 28 Jan 2015 (Local Time) from KBPK Reporting Station
Clear Clear  
Wind Chill: 33°   Ceiling: Unl
Heat Index: 39°   Visibility: 8mi
Dew Point: 34°   Wind: 8mph
Humidity: 82%   Direction: 120°ESE
Pressure: 30.17"   Gusts: NA
Location:  36.3299°N, 92.4805°W
Report Text: KBPK 280853Z AUTO 12007KT 8SM CLR 04/01 A3017 RMK AO2 SLP217 T00390011 55000
Loading
Personal Weather Stations






























Interactive Weather Map New forecast layout! Learn more

10-Day Weather Forecast

Advertisements
Track Severe Weather on mobile